createdAt,value
2019-01-19T00:02:09.751Z,22.23
2019-01-19T00:05:17.812Z,24.93
2019-01-19T00:08:16.086Z,24.37
2019-01-19T00:11:02.874Z,25.10
2019-01-19T00:13:44.738Z,26.57
2019-01-19T00:16:34.249Z,23.77
2019-01-19T00:19:42.697Z,26.53
2019-01-19T00:22:23.335Z,28.07
2019-01-19T00:25:15.639Z,26.27
2019-01-19T00:28:13.051Z,26.57
2019-01-19T00:31:03.523Z,27.37
2019-01-19T00:33:57.402Z,26.17
2019-01-19T00:36:43.626Z,26.03
2019-01-19T00:39:48.436Z,32.60
2019-01-19T00:42:46.306Z,39.40
2019-01-19T00:45:54.651Z,42.87
2019-01-19T00:48:47.340Z,51.80
2019-01-19T00:51:41.124Z,53.10
2019-01-19T00:54:30.760Z,49.30
2019-01-19T00:57:25.095Z,42.20
2019-01-19T00:59:59.384Z,48.03
2019-01-19T01:03:04.986Z,46.83
2019-01-19T01:05:46.203Z,35.50
2019-01-19T01:08:46.000Z,35.60
2019-01-19T01:11:44.560Z,31.60
2019-01-19T01:14:53.066Z,33.10
2019-01-19T01:17:29.460Z,28.13
2019-01-19T01:20:37.838Z,29.70
2019-01-19T01:23:35.259Z,35.60
2019-01-19T01:26:43.726Z,31.13
2019-01-19T01:29:53.021Z,28.73
2019-01-19T01:32:46.619Z,37.33
2019-01-19T01:35:36.766Z,30.17
2019-01-19T01:38:16.940Z,35.60
2019-01-19T01:41:25.327Z,37.73
2019-01-19T01:44:23.539Z,27.37
2019-01-19T01:47:31.912Z,30.60
2019-01-19T01:50:17.988Z,33.27
2019-01-19T01:53:26.251Z,40.67
2019-01-19T01:56:00.027Z,39.67
2019-01-19T01:59:05.552Z,31.30
2019-01-19T02:01:43.247Z,35.73
2019-01-19T02:04:46.544Z,39.57
2019-01-19T02:07:54.831Z,42.90
2019-01-19T02:11:03.152Z,43.57
2019-01-19T02:14:08.490Z,47.37
2019-01-19T02:17:16.766Z,49.87
2019-01-19T02:20:26.845Z,43.23
2019-01-19T02:23:25.486Z,37.67
2019-01-19T02:26:33.791Z,45.10
2019-01-19T02:29:39.380Z,44.03
2019-01-19T02:32:31.741Z,42.43
2019-01-19T02:35:30.439Z,48.40
2019-01-19T02:38:29.862Z,38.87
2019-01-19T02:41:22.773Z,27.03
2019-01-19T02:44:23.301Z,34.47
2019-01-19T02:47:27.350Z,38.53
2019-01-19T02:50:27.025Z,28.07
2019-01-19T02:53:19.989Z,26.43
2019-01-19T02:56:00.715Z,34.17
2019-01-19T02:59:01.449Z,47.10
2019-01-19T03:01:40.311Z,28.40
2019-01-19T03:04:34.598Z,41.60
2019-01-19T03:07:34.304Z,22.17
2019-01-19T03:10:29.091Z,42.70
2019-01-19T03:13:37.434Z,38.60
2019-01-19T03:16:45.829Z,39.77
2019-01-19T03:19:27.734Z,40.57
2019-01-19T03:22:36.203Z,31.17
2019-01-19T03:25:44.851Z,34.53
2019-01-19T03:28:32.548Z,35.57
2019-01-19T03:31:40.913Z,38.30
2019-01-19T03:34:28.172Z,39.70
2019-01-19T03:37:36.481Z,44.57
2019-01-19T03:40:23.545Z,22.60
2019-01-19T03:43:07.887Z,37.33
2019-01-19T03:45:59.911Z,36.33
2019-01-19T03:49:08.320Z,44.73
2019-01-19T03:52:04.400Z,38.27
2019-01-19T03:54:57.445Z,21.70
2019-01-19T03:57:50.820Z,35.43
2019-01-19T04:00:59.179Z,46.97
2019-01-19T04:04:07.558Z,28.17
2019-01-19T04:07:07.638Z,48.23
2019-01-19T04:10:06.409Z,41.97
2019-01-19T04:13:14.927Z,40.50
2019-01-19T04:16:11.801Z,44.93
2019-01-19T04:19:04.869Z,47.33
2019-01-19T04:21:59.536Z,41.00
2019-01-19T04:24:49.206Z,45.10
2019-01-19T04:27:20.372Z,36.67
2019-01-19T04:29:50.622Z,41.93
2019-01-19T04:32:20.880Z,45.67
2019-01-19T04:34:51.001Z,47.77
2019-01-19T04:37:20.936Z,47.83
2019-01-19T04:39:51.476Z,43.53
2019-01-19T04:42:21.916Z,42.00
2019-01-19T04:44:51.954Z,46.37
2019-01-19T04:47:22.096Z,39.43
2019-01-19T04:49:53.077Z,40.57
2019-01-19T04:52:23.135Z,30.40
2019-01-19T04:54:53.177Z,41.87
2019-01-19T04:57:23.121Z,43.60
2019-01-19T04:59:53.169Z,52.40
2019-01-19T05:02:23.301Z,33.17
2019-01-19T05:04:53.268Z,36.37
2019-01-19T05:07:23.199Z,42.20
2019-01-19T05:09:53.370Z,40.77
2019-01-19T05:12:23.327Z,35.80
2019-01-19T05:14:53.333Z,29.37
2019-01-19T05:17:23.318Z,36.40
2019-01-19T05:19:53.427Z,44.03
2019-01-19T05:22:23.531Z,42.07
2019-01-19T05:24:53.871Z,33.23
2019-01-19T05:27:24.047Z,24.33
2019-01-19T05:29:54.325Z,39.53
2019-01-19T05:32:24.963Z,37.43
2019-01-19T05:34:55.407Z,36.20
2019-01-19T05:37:25.453Z,34.33
2019-01-19T05:39:55.735Z,30.80
2019-01-19T05:42:25.735Z,34.67
2019-01-19T05:44:55.710Z,33.10
2019-01-19T05:47:25.642Z,30.50
2019-01-19T05:49:56.907Z,31.37
2019-01-19T05:52:28.768Z,32.47
2019-01-19T05:54:58.949Z,33.57
2019-01-19T05:57:29.389Z,30.93
2019-01-19T05:59:59.428Z,31.77
2019-01-19T06:02:29.928Z,23.80
2019-01-19T06:05:00.969Z,33.07
2019-01-19T06:07:34.117Z,40.43
2019-01-19T06:10:04.481Z,26.23
2019-01-19T06:12:35.911Z,35.60
2019-01-19T06:15:07.541Z,34.43
2019-01-19T06:17:37.814Z,33.07
2019-01-19T06:20:09.053Z,33.43
2019-01-19T06:22:39.200Z,30.53
2019-01-19T06:25:10.055Z,34.07
2019-01-19T06:27:40.167Z,20.23
2019-01-19T06:30:16.513Z,38.50
2019-01-19T06:32:46.729Z,31.80
2019-01-19T06:35:17.030Z,27.37
2019-01-19T06:37:47.400Z,29.73
2019-01-19T06:40:18.211Z,35.03
2019-01-19T06:42:48.418Z,35.63
2019-01-19T06:45:22.069Z,31.70
2019-01-19T06:47:52.190Z,39.07
2019-01-19T06:50:22.273Z,29.83
2019-01-19T06:52:52.482Z,28.10
2019-01-19T06:55:26.569Z,22.53
2019-01-19T06:57:56.718Z,29.27
2019-01-19T07:00:26.822Z,24.43
2019-01-19T07:02:56.903Z,37.10
2019-01-19T07:05:27.053Z,28.83
2019-01-19T07:07:57.258Z,22.87
2019-01-19T07:10:27.695Z,28.67
2019-01-19T07:12:57.781Z,25.73
2019-01-19T07:15:27.944Z,43.50
2019-01-19T07:17:58.082Z,26.90
2019-01-19T07:20:30.952Z,24.70
2019-01-19T07:23:02.331Z,29.00
2019-01-19T07:25:32.339Z,21.73
2019-01-19T07:28:02.383Z,36.37
2019-01-19T07:30:32.570Z,27.37
2019-01-19T07:33:02.590Z,27.33
2019-01-19T07:35:32.643Z,28.43
2019-01-19T07:38:02.762Z,31.87
2019-01-19T07:40:32.837Z,36.53
2019-01-19T07:43:06.890Z,38.07
2019-01-19T07:45:36.971Z,39.40
2019-01-19T07:48:07.505Z,38.17
2019-01-19T07:50:37.507Z,27.50
2019-01-19T07:53:07.558Z,31.27
2019-01-19T07:55:37.792Z,33.80
2019-01-19T07:58:07.904Z,41.00
2019-01-19T08:00:37.952Z,35.20
2019-01-19T08:03:08.093Z,43.97
2019-01-19T08:05:38.414Z,21.63
2019-01-19T08:08:08.752Z,37.13
2019-01-19T08:10:38.801Z,23.60
2019-01-19T08:13:09.005Z,36.57
2019-01-19T08:15:39.070Z,42.63
2019-01-19T08:18:10.080Z,34.70
2019-01-19T08:20:40.267Z,37.53
2019-01-19T08:23:10.286Z,32.37
2019-01-19T08:25:41.336Z,32.43
2019-01-19T08:28:11.425Z,42.75
2019-01-19T08:30:41.525Z,47.50
2019-01-19T08:33:11.566Z,24.20
2019-01-19T08:35:42.762Z,35.17
2019-01-19T08:38:12.899Z,33.97
2019-01-19T08:40:43.742Z,37.07
2019-01-19T08:43:32.887Z,38.27
2019-01-19T08:46:04.911Z,24.70
2019-01-19T08:48:35.079Z,33.37
2019-01-19T08:51:05.091Z,34.03
2019-01-19T08:53:35.164Z,25.80
2019-01-19T08:56:05.369Z,29.50
2019-01-19T08:58:35.748Z,24.77
2019-01-19T09:01:06.133Z,35.73
2019-01-19T09:03:36.378Z,33.97
2019-01-19T09:06:06.417Z,22.67
2019-01-19T09:08:36.580Z,44.30
2019-01-19T09:11:06.895Z,37.83
2019-01-19T09:13:37.556Z,36.07
2019-01-19T09:16:17.153Z,40.70
2019-01-19T09:18:47.391Z,28.00
2019-01-19T09:21:17.625Z,34.80
2019-01-19T09:23:58.160Z,37.03
2019-01-19T09:26:28.673Z,34.40
2019-01-19T09:28:58.892Z,31.83
2019-01-19T09:31:29.032Z,32.97
2019-01-19T09:33:59.281Z,41.23
2019-01-19T09:36:29.831Z,32.10
2019-01-19T09:39:00.330Z,36.87
2019-01-19T09:41:30.201Z,40.13
2019-01-19T09:44:00.246Z,35.23
2019-01-19T09:46:34.244Z,36.70
2019-01-19T09:49:05.080Z,33.57
2019-01-19T09:51:35.176Z,30.17
2019-01-19T09:54:05.619Z,25.03
2019-01-19T09:56:35.647Z,28.63
2019-01-19T09:59:19.300Z,39.47
2019-01-19T10:02:00.568Z,41.37
2019-01-19T10:04:30.803Z,34.30
2019-01-19T10:07:00.938Z,39.73
2019-01-19T10:09:32.829Z,36.57
2019-01-19T10:12:02.992Z,40.07
2019-01-19T10:14:33.191Z,30.87
2019-01-19T10:17:03.130Z,27.40
2019-01-19T10:19:33.287Z,19.53
2019-01-19T10:22:03.430Z,27.60
2019-01-19T10:24:33.837Z,27.43
2019-01-19T10:27:04.073Z,23.33
2019-01-19T10:29:35.225Z,29.43
2019-01-19T10:32:05.413Z,23.07
2019-01-19T10:34:35.540Z,23.97
2019-01-19T10:37:05.752Z,23.47
2019-01-19T10:39:40.815Z,28.17
2019-01-19T10:42:10.993Z,32.00
2019-01-19T10:44:41.134Z,36.63
2019-01-19T10:47:11.187Z,32.17
2019-01-19T10:49:41.360Z,27.63
2019-01-19T10:52:11.807Z,26.57
2019-01-19T10:54:41.945Z,18.77
2019-01-19T10:57:12.082Z,11.17
2019-01-19T10:59:42.234Z,18.07
2019-01-19T11:02:13.398Z,23.03
2019-01-19T11:04:45.216Z,18.97
2019-01-19T11:07:15.329Z,20.07
2019-01-19T11:09:45.263Z,20.87
2019-01-19T11:12:16.972Z,19.23
2019-01-19T11:14:46.954Z,19.90
2019-01-19T11:17:16.951Z,22.50
2019-01-19T11:19:47.026Z,25.40
2019-01-19T11:22:20.279Z,29.07
2019-01-19T11:24:50.464Z,27.87
2019-01-19T11:27:20.551Z,26.43
2019-01-19T11:29:51.292Z,26.40
2019-01-19T11:32:21.362Z,29.57
2019-01-19T11:34:56.269Z,27.87
2019-01-19T11:37:27.941Z,30.10
2019-01-19T11:39:57.990Z,26.57
2019-01-19T11:42:27.943Z,23.03
2019-01-19T11:44:57.859Z,18.40
2019-01-19T11:47:27.830Z,36.17
2019-01-19T11:50:01.223Z,29.17
2019-01-19T11:53:00.013Z,21.43
2019-01-19T11:55:31.711Z,29.33
2019-01-19T11:58:03.723Z,25.00
2019-01-19T12:00:35.656Z,24.90
2019-01-19T12:03:06.361Z,22.07
2019-01-19T12:05:37.542Z,26.83
2019-01-19T12:08:08.871Z,21.83
2019-01-19T12:10:38.927Z,31.53
2019-01-19T12:13:09.409Z,37.90
2019-01-19T12:15:39.506Z,33.73
2019-01-19T12:18:10.929Z,33.70
2019-01-19T12:20:43.695Z,18.50
2019-01-19T12:23:13.679Z,21.57
2019-01-19T12:25:43.601Z,25.73
2019-01-19T12:28:13.957Z,26.67
2019-01-19T12:30:44.142Z,19.90
2019-01-19T12:33:14.282Z,20.37
2019-01-19T12:35:44.250Z,25.97
2019-01-19T12:38:14.358Z,21.47
2019-01-19T12:40:44.455Z,26.77
2019-01-19T12:43:20.517Z,22.67
2019-01-19T12:46:00.573Z,24.17
2019-01-19T12:48:32.780Z,29.73
2019-01-19T12:51:05.018Z,24.53
2019-01-19T12:53:44.904Z,32.83
2019-01-19T12:56:32.627Z,22.63
2019-01-19T12:59:09.170Z,29.90
2019-01-19T13:02:20.677Z,29.23
2019-01-19T13:06:30.445Z,30.87
2019-01-19T13:09:18.981Z,20.93
2019-01-19T13:12:40.360Z,22.73
2019-01-19T13:15:56.556Z,19.20
2019-01-19T13:18:59.511Z,26.23
2019-01-19T13:22:28.650Z,20.73
2019-01-19T13:25:36.505Z,27.17
2019-01-19T13:28:39.436Z,21.63
2019-01-19T13:31:21.315Z,24.27
2019-01-19T13:34:22.180Z,23.77
2019-01-19T13:37:28.925Z,22.40
2019-01-19T13:40:10.772Z,27.30
2019-01-19T13:42:57.471Z,19.70
2019-01-19T13:46:12.391Z,31.00
2019-01-19T13:49:21.163Z,27.33
2019-01-19T13:52:04.417Z,25.27
2019-01-19T13:55:19.536Z,28.47
2019-01-19T13:58:12.758Z,29.80
2019-01-19T14:01:26.738Z,36.63
2019-01-19T14:04:17.081Z,18.23
2019-01-19T14:07:12.217Z,29.63
2019-01-19T14:10:05.407Z,24.10
2019-01-19T14:13:15.114Z,22.50
2019-01-19T14:16:23.607Z,27.53
2019-01-19T14:19:15.552Z,36.40
2019-01-19T14:22:20.248Z,28.83
2019-01-19T14:25:28.603Z,34.07
2019-01-19T14:28:09.667Z,40.57
2019-01-19T14:31:02.571Z,22.70
2019-01-19T14:33:52.090Z,29.47
2019-01-19T14:36:37.940Z,26.13
2019-01-19T14:39:33.699Z,28.33
2019-01-19T14:42:18.407Z,31.60
2019-01-19T14:45:21.087Z,36.83
2019-01-19T14:48:29.619Z,30.80
2019-01-19T14:51:32.003Z,48.23
2019-01-19T14:54:28.106Z,42.50
2019-01-19T14:57:25.342Z,42.67
2019-01-19T15:00:22.363Z,47.93
2019-01-19T15:03:16.266Z,40.07
2019-01-19T15:06:13.720Z,52.23
2019-01-19T15:09:07.593Z,42.73
2019-01-19T15:12:04.576Z,46.20
2019-01-19T15:14:51.898Z,49.60
2019-01-19T15:18:00.452Z,44.17
2019-01-19T15:20:53.347Z,33.63
2019-01-19T15:24:01.731Z,41.77
2019-01-19T15:26:55.317Z,44.63
2019-01-19T15:29:56.112Z,54.00
2019-01-19T15:32:44.854Z,76.83
2019-01-19T15:35:31.948Z,69.13
2019-01-19T15:38:31.686Z,58.87
2019-01-19T15:41:40.164Z,38.73
2019-01-19T15:44:48.569Z,39.37
2019-01-19T15:47:58.218Z,39.43
2019-01-19T15:50:58.908Z,38.93
2019-01-19T15:53:49.885Z,35.77
2019-01-19T15:56:59.380Z,41.47
2019-01-19T16:00:08.008Z,55.13
2019-01-19T16:03:05.437Z,41.93
2019-01-19T16:06:02.504Z,42.43
2019-01-19T16:09:02.149Z,43.93
2019-01-19T16:12:12.121Z,27.57
2019-01-19T16:15:12.759Z,40.97
2019-01-19T16:18:12.127Z,39.97
2019-01-19T16:21:25.403Z,31.33
2019-01-19T16:24:13.845Z,39.17
2019-01-19T16:27:14.464Z,32.87
2019-01-19T16:29:58.477Z,33.20
2019-01-19T16:32:59.145Z,39.40
2019-01-19T16:35:44.271Z,39.83
2019-01-19T16:38:52.710Z,40.20
2019-01-19T16:41:52.424Z,46.37
2019-01-19T16:44:44.840Z,37.47
2019-01-19T16:47:42.280Z,65.90
2019-01-19T16:50:24.002Z,72.70
2019-01-19T16:53:03.535Z,48.80
2019-01-19T16:56:05.041Z,59.30
2019-01-19T16:59:01.628Z,49.70
2019-01-19T17:01:58.448Z,65.40
2019-01-19T17:05:03.401Z,43.57
2019-01-19T17:07:56.110Z,53.97
2019-01-19T17:11:01.344Z,64.80
2019-01-19T17:14:05.411Z,46.90
2019-01-19T17:17:02.191Z,74.17
2019-01-19T17:20:13.044Z,75.17
2019-01-19T17:23:11.313Z,59.03
2019-01-19T17:26:04.627Z,56.40
2019-01-19T17:29:14.231Z,46.83
2019-01-19T17:32:08.241Z,49.60
2019-01-19T17:35:23.308Z,50.23
2019-01-19T17:38:11.530Z,52.27
2019-01-19T17:41:23.727Z,53.33
2019-01-19T17:44:25.321Z,39.27
2019-01-19T17:47:33.760Z,49.97
2019-01-19T17:50:28.492Z,48.47
2019-01-19T17:53:37.030Z,52.93
2019-01-19T17:56:34.552Z,49.73
2019-01-19T17:59:31.659Z,40.07
2019-01-19T18:02:40.124Z,43.30
2019-01-19T18:05:27.249Z,35.33
2019-01-19T18:08:23.545Z,52.03
2019-01-19T18:11:31.880Z,75.93
2019-01-19T18:14:16.590Z,89.37
2019-01-19T18:17:24.925Z,89.33
2019-01-19T18:20:35.175Z,94.03
2019-01-19T18:23:40.046Z,88.90
2019-01-19T18:26:30.616Z,88.80
2019-01-19T18:29:27.235Z,101.57
2019-01-19T18:32:07.922Z,90.70
2019-01-19T18:34:52.728Z,84.77
2019-01-19T18:38:01.133Z,85.80
2019-01-19T18:41:02.058Z,102.77
2019-01-19T18:44:04.870Z,88.50
2019-01-19T18:47:16.462Z,92.40
2019-01-19T18:50:09.909Z,87.67
2019-01-19T18:53:05.308Z,86.90
2019-01-19T18:56:01.379Z,93.50
2019-01-19T18:58:58.678Z,86.13
2019-01-19T19:01:57.681Z,92.87
2019-01-19T19:05:11.020Z,86.33
2019-01-19T19:08:19.638Z,94.40
2019-01-19T19:11:27.614Z,87.00
2019-01-19T19:14:38.482Z,79.20
2019-01-19T19:17:41.993Z,79.40
2019-01-19T19:20:59.779Z,87.13
2019-01-19T19:24:24.303Z,96.23
2019-01-19T19:27:41.672Z,98.40
2019-01-19T19:30:32.953Z,97.87
2019-01-19T19:33:31.137Z,94.70
2019-01-19T19:36:43.181Z,106.77
2019-01-19T19:40:00.681Z,93.97
2019-01-19T19:43:04.778Z,91.43
2019-01-19T19:46:03.075Z,95.60
2019-01-19T19:49:03.653Z,105.73
2019-01-19T19:52:07.541Z,89.40
2019-01-19T19:54:40.520Z,106.30
2019-01-19T19:57:20.116Z,91.90
2019-01-19T20:00:00.702Z,98.80
2019-01-19T20:02:57.558Z,98.43
2019-01-19T20:05:52.477Z,89.87
2019-01-19T20:08:25.196Z,95.53
2019-01-19T20:11:37.310Z,91.40
2019-01-19T20:14:56.489Z,71.83
2019-01-19T20:17:29.868Z,67.17
2019-01-19T20:20:46.393Z,74.47
2019-01-19T20:23:47.421Z,86.30
2019-01-19T20:26:52.374Z,77.23
2019-01-19T20:29:56.367Z,79.57
2019-01-19T20:32:48.280Z,79.87
2019-01-19T20:35:22.023Z,87.87
2019-01-19T20:37:52.624Z,105.40
2019-01-19T20:40:35.552Z,113.30
2019-01-19T20:43:32.713Z,104.17
2019-01-19T20:46:03.488Z,125.57
2019-01-19T20:48:34.106Z,116.13
2019-01-19T20:51:13.321Z,103.10
2019-01-19T20:53:52.071Z,97.57
2019-01-19T20:56:36.065Z,96.00
2019-01-19T20:59:21.857Z,97.23
2019-01-19T21:02:17.649Z,101.07
2019-01-19T21:04:52.541Z,97.27
2019-01-19T21:07:24.227Z,101.27
2019-01-19T21:09:58.229Z,102.80
2019-01-19T21:12:33.652Z,108.60
2019-01-19T21:15:31.239Z,112.87
2019-01-19T21:18:17.100Z,121.50
2019-01-19T21:20:54.462Z,111.70
2019-01-19T21:23:38.671Z,106.43
2019-01-19T21:26:11.101Z,131.00
2019-01-19T21:28:58.910Z,115.97
2019-01-19T21:31:45.098Z,138.93
2019-01-19T21:34:20.278Z,142.73
2019-01-19T21:36:54.084Z,148.83
2019-01-19T21:39:42.477Z,156.50
2019-01-19T21:42:38.046Z,187.00
2019-01-19T21:45:13.620Z,239.23
2019-01-19T21:48:14.188Z,200.63
2019-01-19T21:51:01.909Z,186.93
2019-01-19T21:53:46.174Z,195.70
2019-01-19T21:56:31.139Z,196.20
2019-01-19T21:59:18.930Z,182.70
2019-01-19T22:02:02.061Z,174.30
2019-01-19T22:04:48.710Z,158.20
2019-01-19T22:07:49.231Z,183.53
2019-01-19T22:10:46.373Z,175.80
2019-01-19T22:13:31.135Z,171.73
2019-01-19T22:16:04.885Z,174.40
2019-01-19T22:18:51.161Z,170.53
2019-01-19T22:21:38.857Z,158.03
2019-01-19T22:24:20.784Z,146.90
2019-01-19T22:27:27.862Z,163.07
2019-01-19T22:30:14.786Z,138.90
2019-01-19T22:32:52.606Z,144.87
2019-01-19T22:35:35.446Z,152.57
2019-01-19T22:38:15.330Z,143.63
2019-01-19T22:41:00.795Z,133.63
2019-01-19T22:43:48.216Z,140.77
2019-01-19T22:46:38.514Z,151.27
2019-01-19T22:49:28.983Z,147.67
2019-01-19T22:52:00.162Z,137.63
2019-01-19T22:54:39.468Z,141.07
2019-01-19T22:57:19.750Z,135.10
2019-01-19T23:00:04.692Z,142.10
2019-01-19T23:02:46.077Z,158.73
2019-01-19T23:05:26.878Z,142.60
2019-01-19T23:08:14.167Z,146.37
2019-01-19T23:11:03.506Z,130.47
2019-01-19T23:13:42.894Z,132.10
2019-01-19T23:16:16.086Z,147.67
2019-01-19T23:18:46.173Z,146.63
2019-01-19T23:21:16.409Z,140.20
2019-01-19T23:23:46.420Z,142.40
2019-01-19T23:26:16.822Z,135.37
2019-01-19T23:28:46.929Z,141.40
2019-01-19T23:31:17.101Z,151.53
2019-01-19T23:33:47.138Z,152.03
2019-01-19T23:36:17.260Z,134.50
2019-01-19T23:38:48.978Z,141.30
2019-01-19T23:41:19.139Z,150.63
2019-01-19T23:43:50.158Z,142.37
2019-01-19T23:46:21.862Z,121.93
2019-01-19T23:48:51.980Z,128.53
2019-01-19T23:51:22.406Z,135.50
2019-01-19T23:53:53.568Z,148.73
2019-01-19T23:56:25.220Z,145.47
2019-01-19T23:58:55.193Z,140.73
